Belle Mead, New Jersey
Current Conditions -  °F | °C
As of 12:53 AM on Saturday 25 Oct 2014 (Local Time) from KSMQ Reporting Station
Clear Clear  
Wind Chill:   Ceiling: Unl
Heat Index:   Visibility: 10mi
Dew Point:   Wind: 0mph
Humidity: 74%   Direction: NA
Pressure: 29.86"   Gusts: NA
Location:  40.47°N, 74.66°W
Report Text: KSMQ 250453Z AUTO 00000KT 10SM CLR 08/04 A2986 RMK AO2 SLP110 T00830039 402170072
Loading
Personal Weather Stations






























Interactive Weather Map
Tropical Storm Tracking
New forecast layout! Learn more

10-Day Weather Forecast

Advertisements
Track Severe Weather on mobile